createdAt,value
2022-12-03T00:03:17.298Z,15.67
2022-12-03T00:08:22.140Z,15.93
2022-12-03T00:13:25.475Z,16.47
2022-12-03T00:18:29.019Z,16.03
2022-12-03T00:23:37.176Z,14.88
2022-12-03T00:28:45.027Z,14.13
2022-12-03T00:33:48.319Z,15.47
2022-12-03T00:38:53.322Z,15.07
2022-12-03T00:43:57.975Z,14.87
2022-12-03T00:49:01.436Z,14.87
2022-12-03T00:54:06.243Z,14.53
2022-12-03T00:59:09.822Z,14.43
2022-12-03T01:04:13.165Z,15.57
2022-12-03T01:09:18.046Z,17.07
2022-12-03T01:14:22.209Z,14.30
2022-12-03T01:19:25.681Z,15.30
2022-12-03T01:24:30.529Z,15.27
2022-12-03T01:29:33.831Z,15.20
2022-12-03T01:34:37.259Z,14.67
2022-12-03T01:39:42.404Z,12.87
2022-12-03T01:44:47.201Z,15.23
2022-12-03T01:49:54.354Z,14.77
2022-12-03T01:55:01.986Z,14.20
2022-12-03T02:00:08.725Z,15.73
2022-12-03T02:05:19.270Z,14.70
2022-12-03T02:10:27.318Z,14.77
2022-12-03T02:15:30.830Z,15.97
2022-12-03T02:20:39.417Z,15.75
2022-12-03T02:25:44.195Z,14.47
2022-12-03T02:30:47.807Z,15.77
2022-12-03T02:35:51.369Z,14.65
2022-12-03T02:41:00.694Z,12.85
2022-12-03T02:46:06.807Z,14.73
2022-12-03T02:51:12.286Z,14.07
2022-12-03T02:56:20.209Z,13.17
2022-12-03T03:01:23.874Z,14.23
2022-12-03T03:06:27.541Z,13.73
2022-12-03T03:11:32.603Z,15.02
2022-12-03T03:16:36.475Z,13.83
2022-12-03T03:21:40.113Z,14.20
2022-12-03T03:26:45.054Z,13.98
2022-12-03T03:31:49.329Z,13.90
2022-12-03T03:36:52.771Z,13.80
2022-12-03T03:41:57.584Z,15.70
2022-12-03T03:47:01.783Z,13.27
2022-12-03T03:57:10.610Z,13.63
2022-12-03T04:02:20.976Z,14.17
2022-12-03T04:07:24.357Z,13.20
2022-12-03T04:12:46.408Z,14.85
2022-12-03T04:18:09.984Z,14.20
2022-12-03T04:23:13.325Z,14.40
2022-12-03T04:28:35.381Z,15.27
2022-12-03T04:33:55.936Z,13.60
2022-12-03T04:38:59.247Z,14.40
2022-12-03T04:44:21.312Z,14.97
2022-12-03T04:49:24.830Z,15.43
2022-12-03T04:54:28.273Z,15.43
2022-12-03T04:59:33.611Z,12.70
2022-12-03T05:04:37.270Z,13.07
2022-12-03T05:09:40.897Z,13.75
2022-12-03T05:14:45.728Z,13.60
2022-12-03T05:20:06.261Z,13.17
2022-12-03T05:25:10.726Z,13.13
2022-12-03T05:30:16.942Z,15.03
2022-12-03T05:35:20.452Z,12.27
2022-12-03T05:40:24.214Z,15.38
2022-12-03T05:45:30.697Z,11.52
2022-12-03T05:50:36.362Z,14.30
2022-12-03T05:55:40.228Z,14.57
2022-12-03T06:00:45.180Z,14.45
2022-12-03T06:05:48.589Z,13.60
2022-12-03T06:10:52.528Z,13.25
2022-12-03T06:15:57.539Z,12.70
2022-12-03T06:21:00.991Z,14.20
2022-12-03T06:26:06.542Z,15.57
2022-12-03T06:31:11.470Z,15.15
2022-12-03T06:36:21.521Z,10.77
2022-12-03T06:41:26.234Z,13.87
2022-12-03T06:46:31.050Z,13.17
2022-12-03T06:51:34.458Z,13.97
2022-12-03T06:56:43.601Z,13.80
2022-12-03T07:01:50.245Z,9.67
2022-12-03T07:06:53.827Z,13.90
2022-12-03T07:11:57.307Z,15.00
2022-12-03T07:17:02.003Z,14.60
2022-12-03T07:22:05.988Z,14.60
2022-12-03T07:27:24.630Z,14.27
2022-12-03T07:32:29.455Z,12.90
2022-12-03T07:37:32.792Z,14.07
2022-12-03T07:42:36.465Z,14.43
2022-12-03T07:47:41.320Z,14.47
2022-12-03T07:52:44.760Z,15.30
2022-12-03T07:57:48.255Z,14.77
2022-12-03T08:02:52.974Z,15.63
2022-12-03T08:07:56.660Z,14.03
2022-12-03T08:13:00.912Z,14.20
2022-12-03T08:18:09.698Z,15.18
2022-12-03T08:23:16.605Z,15.00
2022-12-03T08:28:22.266Z,15.63
2022-12-03T08:33:29.207Z,14.50
2022-12-03T08:38:32.813Z,14.50
2022-12-03T08:43:42.272Z,14.40
2022-12-03T08:48:49.463Z,13.30
2022-12-03T08:54:01.047Z,14.43
2022-12-03T08:59:25.686Z,13.83
2022-12-03T09:04:37.509Z,14.30
2022-12-03T09:09:40.986Z,14.40
2022-12-03T09:14:44.786Z,16.13
2022-12-03T09:19:49.664Z,15.80
2022-12-03T09:24:53.195Z,15.87
2022-12-03T09:29:56.813Z,15.43
2022-12-03T09:35:01.710Z,15.27
2022-12-03T09:40:05.663Z,13.33
2022-12-03T09:45:12.539Z,14.63
2022-12-03T09:50:20.271Z,14.73
2022-12-03T09:55:27.180Z,13.33
2022-12-03T10:00:31.585Z,12.90
2022-12-03T10:05:36.692Z,13.30
2022-12-03T10:10:41.985Z,13.53
2022-12-03T10:15:45.407Z,13.23
2022-12-03T10:20:51.352Z,13.57
2022-12-03T10:25:57.296Z,14.37
2022-12-03T10:31:02.121Z,14.17
2022-12-03T10:36:25.377Z,11.67
2022-12-03T10:41:30.010Z,12.63
2022-12-03T10:46:33.648Z,12.00
2022-12-03T10:51:39.569Z,12.50
2022-12-03T10:56:42.910Z,12.77
2022-12-03T11:01:46.992Z,13.00
2022-12-03T11:06:52.178Z,13.73
2022-12-03T11:11:56.182Z,13.10
2022-12-03T11:17:10.058Z,13.27
2022-12-03T11:22:42.742Z,13.53
2022-12-03T11:28:06.482Z,14.13
2022-12-03T11:33:25.759Z,11.63
2022-12-03T11:38:53.367Z,12.87
2022-12-03T11:44:20.392Z,11.97
2022-12-03T11:49:48.251Z,13.17
2022-12-03T11:54:56.187Z,11.73
2022-12-03T12:00:06.842Z,14.27
2022-12-03T12:05:21.885Z,12.63
2022-12-03T12:10:44.671Z,12.27
2022-12-03T12:15:48.190Z,12.43
2022-12-03T12:20:51.699Z,13.73
2022-12-03T12:26:07.388Z,14.67
2022-12-03T12:31:12.593Z,12.60
2022-12-03T12:36:16.116Z,14.43
2022-12-03T12:41:20.980Z,13.97
2022-12-03T12:46:47.420Z,13.80
2022-12-03T12:51:49.467Z,14.77
2022-12-03T12:56:54.195Z,15.57
2022-12-03T13:07:01.257Z,15.03
2022-12-03T13:12:07.760Z,8.87
2022-12-03T13:17:16.814Z,14.43
2022-12-03T13:22:22.279Z,15.90
2022-12-03T13:27:30.754Z,13.03
2022-12-03T13:32:37.379Z,15.93
2022-12-03T13:37:40.926Z,16.03
2022-12-03T13:42:46.712Z,15.23
2022-12-03T13:47:54.548Z,16.00
2022-12-03T13:52:59.330Z,11.90
2022-12-03T13:58:04.238Z,16.70
2022-12-03T14:03:07.766Z,12.87
2022-12-03T14:08:11.180Z,15.77
2022-12-03T14:13:16.060Z,15.73
2022-12-03T14:18:19.445Z,15.63
2022-12-03T14:23:22.946Z,15.53
2022-12-03T14:28:27.846Z,16.67
2022-12-03T14:33:31.187Z,14.17
2022-12-03T14:38:34.810Z,16.37
2022-12-03T14:43:39.722Z,15.43
2022-12-03T14:48:43.083Z,18.30
2022-12-03T14:53:46.522Z,16.60
2022-12-03T14:58:51.231Z,16.40
2022-12-03T15:08:57.717Z,15.07
2022-12-03T15:14:02.586Z,17.37
2022-12-03T15:19:05.874Z,14.07
2022-12-03T15:24:10.671Z,14.60
2022-12-03T15:29:15.488Z,14.63
2022-12-03T15:34:22.898Z,15.13
2022-12-03T15:39:26.607Z,13.73
2022-12-03T15:44:31.538Z,16.27
2022-12-03T15:49:34.904Z,13.87
2022-12-03T15:54:38.242Z,15.03
2022-12-03T15:59:43.484Z,14.57
2022-12-03T16:04:46.912Z,14.57
2022-12-03T16:09:50.615Z,11.63
2022-12-03T16:14:55.665Z,13.33
2022-12-03T16:19:59.125Z,14.10
2022-12-03T16:25:03.479Z,22.60
2022-12-03T16:30:10.214Z,19.98
2022-12-03T16:35:13.691Z,11.03
2022-12-03T16:40:17.080Z,12.10
2022-12-03T16:45:51.143Z,11.90
2022-12-03T16:50:54.924Z,14.17
2022-12-03T16:55:58.401Z,11.37
2022-12-03T17:01:03.296Z,11.90
2022-12-03T17:06:07.235Z,12.97
2022-12-03T17:11:10.759Z,13.67
2022-12-03T17:16:15.740Z,11.97
2022-12-03T17:21:19.240Z,11.33
2022-12-03T17:26:22.710Z,11.90
2022-12-03T17:31:27.705Z,13.70
2022-12-03T17:36:31.240Z,13.90
2022-12-03T17:41:34.980Z,15.23
2022-12-03T17:46:40.405Z,10.70
2022-12-03T17:51:43.878Z,14.70
2022-12-03T17:56:47.343Z,13.87
2022-12-03T18:01:52.246Z,13.83
2022-12-03T18:07:00.649Z,11.80
2022-12-03T18:12:06.127Z,12.13
2022-12-03T18:17:11.373Z,9.88
2022-12-03T18:22:15.030Z,9.87
2022-12-03T18:27:19.500Z,8.20
2022-12-03T18:32:31.501Z,10.60
2022-12-03T18:37:35.279Z,8.57
2022-12-03T18:42:38.629Z,11.87
2022-12-03T18:47:44.521Z,7.20
2022-12-03T18:52:47.977Z,9.70
2022-12-03T18:57:52.067Z,10.27
2022-12-03T19:03:04.631Z,9.52
2022-12-03T19:08:14.869Z,10.37
2022-12-03T19:13:18.530Z,9.83
2022-12-03T19:18:23.816Z,9.97
2022-12-03T19:23:27.207Z,9.43
2022-12-03T19:28:31.155Z,11.20
2022-12-03T19:33:36.425Z,10.20
2022-12-03T19:38:39.930Z,10.17
2022-12-03T19:43:43.295Z,10.87
2022-12-03T19:48:48.724Z,9.07
2022-12-03T19:53:52.182Z,9.97
2022-12-03T19:58:56.645Z,9.57
2022-12-03T20:04:03.637Z,9.25
2022-12-03T20:09:09.454Z,9.47
2022-12-03T20:14:16.060Z,10.07
2022-12-03T20:19:20.819Z,11.57
2022-12-03T20:24:24.259Z,9.50
2022-12-03T20:29:27.542Z,8.33
2022-12-03T20:34:34.216Z,10.73
2022-12-03T20:39:37.638Z,11.60
2022-12-03T20:44:41.219Z,8.33
2022-12-03T20:49:46.472Z,10.87
2022-12-03T20:54:49.892Z,11.10
2022-12-03T20:59:55.529Z,11.63
2022-12-03T21:05:00.570Z,11.10
2022-12-03T21:10:04.416Z,10.50
2022-12-03T21:15:08.718Z,11.35
2022-12-03T21:20:16.697Z,11.82
2022-12-03T21:25:24.086Z,11.07
2022-12-03T21:30:28.980Z,11.60
2022-12-03T21:35:34.126Z,11.77
2022-12-03T21:40:37.569Z,13.13
2022-12-03T21:45:41.528Z,11.70
2022-12-03T21:50:47.389Z,12.73
2022-12-03T21:55:50.950Z,12.33
2022-12-03T22:00:54.358Z,12.10
2022-12-03T22:05:59.131Z,11.53
2022-12-03T22:11:06.538Z,10.50
2022-12-03T22:16:11.680Z,8.30
2022-12-03T22:21:19.014Z,11.43
2022-12-03T22:26:22.401Z,9.63
2022-12-03T22:31:25.912Z,9.57
2022-12-03T22:36:31.177Z,11.13
2022-12-03T22:41:34.523Z,10.80
2022-12-03T22:46:37.921Z,12.00
2022-12-03T22:51:45.863Z,10.77
2022-12-03T22:56:49.482Z,12.17
2022-12-03T23:01:52.978Z,13.33
2022-12-03T23:06:57.875Z,11.33
2022-12-03T23:12:01.238Z,9.40
2022-12-03T23:17:04.981Z,11.60
2022-12-03T23:22:09.870Z,12.67
2022-12-03T23:27:13.854Z,12.00
2022-12-03T23:32:17.590Z,12.57
2022-12-03T23:37:22.995Z,11.43
2022-12-03T23:42:26.351Z,10.17
2022-12-03T23:47:29.847Z,11.50
2022-12-03T23:52:36.823Z,10.93
2022-12-03T23:57:40.291Z,11.40
